sensor_id;sensor_type;location;lat;lon;timestamp;temperature;humidity
75164;HTU21D;63746;45.402;37.922;2023-06-24T00:00:09;20.72;55.84
75164;HTU21D;63746;45.402;37.922;2023-06-24T00:02:37;20.68;55.86
75164;HTU21D;63746;45.402;37.922;2023-06-24T00:05:04;20.66;55.89
75164;HTU21D;63746;45.402;37.922;2023-06-24T00:07:31;20.63;56.71
75164;HTU21D;63746;45.402;37.922;2023-06-24T00:09:57;20.58;55.95
75164;HTU21D;63746;45.402;37.922;2023-06-24T00:12:23;20.54;56.00
75164;HTU21D;63746;45.402;37.922;2023-06-24T00:14:50;20.51;56.03
75164;HTU21D;63746;45.402;37.922;2023-06-24T00:17:16;20.50;56.06
75164;HTU21D;63746;45.402;37.922;2023-06-24T00:19:42;20.50;56.05
75164;HTU21D;63746;45.402;37.922;2023-06-24T00:22:09;20.49;56.05
75164;HTU21D;63746;45.402;37.922;2023-06-24T00:24:35;20.47;56.07
75164;HTU21D;63746;45.402;37.922;2023-06-24T00:27:01;20.46;56.07
75164;HTU21D;63746;45.402;37.922;2023-06-24T00:29:27;20.47;56.07
75164;HTU21D;63746;45.402;37.922;2023-06-24T00:31:53;20.45;56.05
75164;HTU21D;63746;45.402;37.922;2023-06-24T00:34:20;20.44;56.06
75164;HTU21D;63746;45.402;37.922;2023-06-24T00:36:46;20.42;56.04
75164;HTU21D;63746;45.402;37.922;2023-06-24T00:39:13;20.40;56.07
75164;HTU21D;63746;45.402;37.922;2023-06-24T00:41:39;20.39;56.05
75164;HTU21D;63746;45.402;37.922;2023-06-24T00:44:05;20.34;56.05
75164;HTU21D;63746;45.402;37.922;2023-06-24T00:46:32;20.30;56.07
75164;HTU21D;63746;45.402;37.922;2023-06-24T00:48:58;20.27;56.08
75164;HTU21D;63746;45.402;37.922;2023-06-24T00:51:26;20.25;56.10
75164;HTU21D;63746;45.402;37.922;2023-06-24T00:53:58;20.20;56.13
75164;HTU21D;63746;45.402;37.922;2023-06-24T00:56:43;20.17;56.47
75164;HTU21D;63746;45.402;37.922;2023-06-24T00:59:12;20.14;56.22
75164;HTU21D;63746;45.402;37.922;2023-06-24T01:01:40;20.10;56.26
75164;HTU21D;63746;45.402;37.922;2023-06-24T01:04:06;20.07;56.29
75164;HTU21D;63746;45.402;37.922;2023-06-24T01:06:35;20.05;56.32
75164;HTU21D;63746;45.402;37.922;2023-06-24T01:09:02;20.04;56.32
75164;HTU21D;63746;45.402;37.922;2023-06-24T01:11:29;20.03;56.36
75164;HTU21D;63746;45.402;37.922;2023-06-24T01:13:55;20.01;56.36
75164;HTU21D;63746;45.402;37.922;2023-06-24T01:22:24;19.97;56.71
75164;HTU21D;63746;45.402;37.922;2023-06-24T01:33:23;19.83;56.68
75164;HTU21D;63746;45.402;37.922;2023-06-24T01:35:53;19.83;56.56
75164;HTU21D;63746;45.402;37.922;2023-06-24T01:38:27;19.81;56.68
75164;HTU21D;63746;45.402;37.922;2023-06-24T01:40:56;19.81;56.56
75164;HTU21D;63746;45.402;37.922;2023-06-24T01:43:23;19.79;56.57
75164;HTU21D;63746;45.402;37.922;2023-06-24T01:45:52;19.80;56.61
75164;HTU21D;63746;45.402;37.922;2023-06-24T01:48:23;19.80;56.68
75164;HTU21D;63746;45.402;37.922;2023-06-24T01:53:24;19.77;56.59
75164;HTU21D;63746;45.402;37.922;2023-06-24T01:55:54;19.75;56.61
75164;HTU21D;63746;45.402;37.922;2023-06-24T01:58:21;19.74;56.58
75164;HTU21D;63746;45.402;37.922;2023-06-24T02:00:48;19.73;56.59
75164;HTU21D;63746;45.402;37.922;2023-06-24T02:03:15;19.71;56.60
75164;HTU21D;63746;45.402;37.922;2023-06-24T02:05:41;19.69;56.59
75164;HTU21D;63746;45.402;37.922;2023-06-24T02:08:09;19.66;56.60
75164;HTU21D;63746;45.402;37.922;2023-06-24T02:10:38;19.65;56.64
75164;HTU21D;63746;45.402;37.922;2023-06-24T02:13:05;19.63;56.64
75164;HTU21D;63746;45.402;37.922;2023-06-24T02:15:33;19.62;56.68
75164;HTU21D;63746;45.402;37.922;2023-06-24T02:18:01;19.61;56.74
75164;HTU21D;63746;45.402;37.922;2023-06-24T02:20:28;19.62;56.69
75164;HTU21D;63746;45.402;37.922;2023-06-24T02:22:57;19.62;56.71
75164;HTU21D;63746;45.402;37.922;2023-06-24T02:25:24;19.62;56.69
75164;HTU21D;63746;45.402;37.922;2023-06-24T02:27:52;19.62;56.74
75164;HTU21D;63746;45.402;37.922;2023-06-24T02:30:20;19.63;56.77
75164;HTU21D;63746;45.402;37.922;2023-06-24T02:32:47;19.65;56.79
75164;HTU21D;63746;45.402;37.922;2023-06-24T02:35:15;19.66;56.81
75164;HTU21D;63746;45.402;37.922;2023-06-24T02:37:40;19.67;56.81
75164;HTU21D;63746;45.402;37.922;2023-06-24T02:40:07;19.67;56.82
75164;HTU21D;63746;45.402;37.922;2023-06-24T02:42:33;19.68;56.84
75164;HTU21D;63746;45.402;37.922;2023-06-24T02:45:00;19.69;56.89
75164;HTU21D;63746;45.402;37.922;2023-06-24T02:47:26;19.72;56.93
75164;HTU21D;63746;45.402;37.922;2023-06-24T02:49:54;19.75;56.95
75164;HTU21D;63746;45.402;37.922;2023-06-24T02:52:24;19.77;56.93
75164;HTU21D;63746;45.402;37.922;2023-06-24T02:54:58;19.81;57.08
75164;HTU21D;63746;45.402;37.922;2023-06-24T02:57:43;19.85;57.03
75164;HTU21D;63746;45.402;37.922;2023-06-24T03:00:19;19.89;57.06
75164;HTU21D;63746;45.402;37.922;2023-06-24T03:03:05;19.96;57.10
75164;HTU21D;63746;45.402;37.922;2023-06-24T03:05:35;20.02;57.10
75164;HTU21D;63746;45.402;37.922;2023-06-24T03:08:02;20.07;57.06
75164;HTU21D;63746;45.402;37.922;2023-06-24T03:10:33;20.12;57.07
75164;HTU21D;63746;45.402;37.922;2023-06-24T03:13:01;20.17;58.93
75164;HTU21D;63746;45.402;37.922;2023-06-24T03:15:39;20.22;57.16
75164;HTU21D;63746;45.402;37.922;2023-06-24T03:18:05;20.26;57.16
75164;HTU21D;63746;45.402;37.922;2023-06-24T03:20:31;20.32;57.15
75164;HTU21D;63746;45.402;37.922;2023-06-24T03:23:06;20.39;57.15
75164;HTU21D;63746;45.402;37.922;2023-06-24T03:25:34;20.45;57.13
75164;HTU21D;63746;45.402;37.922;2023-06-24T03:28:00;20.51;57.12
75164;HTU21D;63746;45.402;37.922;2023-06-24T03:30:27;20.59;57.10
75164;HTU21D;63746;45.402;37.922;2023-06-24T03:32:55;20.65;57.07
75164;HTU21D;63746;45.402;37.922;2023-06-24T03:35:23;20.72;57.07
75164;HTU21D;63746;45.402;37.922;2023-06-24T03:37:49;20.77;57.06
75164;HTU21D;63746;45.402;37.922;2023-06-24T03:40:15;20.83;57.04
75164;HTU21D;63746;45.402;37.922;2023-06-24T03:42:41;20.89;57.03
75164;HTU21D;63746;45.402;37.922;2023-06-24T03:45:07;20.95;57.03
75164;HTU21D;63746;45.402;37.922;2023-06-24T03:47:33;21.02;57.02
75164;HTU21D;63746;45.402;37.922;2023-06-24T03:49:59;21.06;57.02
75164;HTU21D;63746;45.402;37.922;2023-06-24T03:52:25;21.13;57.01
75164;HTU21D;63746;45.402;37.922;2023-06-24T03:54:52;21.18;57.01
75164;HTU21D;63746;45.402;37.922;2023-06-24T03:57:19;21.22;57.01
75164;HTU21D;63746;45.402;37.922;2023-06-24T03:59:44;21.28;57.02
75164;HTU21D;63746;45.402;37.922;2023-06-24T04:02:10;21.35;57.02
75164;HTU21D;63746;45.402;37.922;2023-06-24T04:04:37;21.38;57.02
75164;HTU21D;63746;45.402;37.922;2023-06-24T04:07:03;21.44;57.03
75164;HTU21D;63746;45.402;37.922;2023-06-24T04:09:35;21.49;57.17
75164;HTU21D;63746;45.402;37.922;2023-06-24T04:12:01;21.54;57.01
75164;HTU21D;63746;45.402;37.922;2023-06-24T04:14:33;21.61;57.03
75164;HTU21D;63746;45.402;37.922;2023-06-24T04:16:59;21.66;57.02
75164;HTU21D;63746;45.402;37.922;2023-06-24T04:19:25;21.72;57.00
75164;HTU21D;63746;45.402;37.922;2023-06-24T04:21:51;21.77;57.01
75164;HTU21D;63746;45.402;37.922;2023-06-24T04:24:17;21.81;57.00
75164;HTU21D;63746;45.402;37.922;2023-06-24T04:26:43;21.87;57.00
75164;HTU21D;63746;45.402;37.922;2023-06-24T04:29:09;21.93;57.00
75164;HTU21D;63746;45.402;37.922;2023-06-24T04:31:35;21.97;57.00
75164;HTU21D;63746;45.402;37.922;2023-06-24T04:34:01;22.04;57.00
75164;HTU21D;63746;45.402;37.922;2023-06-24T04:36:26;22.09;57.01
75164;HTU21D;63746;45.402;37.922;2023-06-24T04:38:52;22.16;57.00
75164;HTU21D;63746;45.402;37.922;2023-06-24T04:41:18;22.22;57.00
75164;HTU21D;63746;45.402;37.922;2023-06-24T04:43:45;22.29;56.99
75164;HTU21D;63746;45.402;37.922;2023-06-24T04:46:10;22.36;57.00
75164;HTU21D;63746;45.402;37.922;2023-06-24T04:48:36;22.43;56.98
75164;HTU21D;63746;45.402;37.922;2023-06-24T04:51:02;22.51;56.99
75164;HTU21D;63746;45.402;37.922;2023-06-24T04:53:28;22.60;56.97
75164;HTU21D;63746;45.402;37.922;2023-06-24T04:55:55;22.68;56.97
75164;HTU21D;63746;45.402;37.922;2023-06-24T04:58:20;22.76;56.95
75164;HTU21D;63746;45.402;37.922;2023-06-24T05:00:46;22.86;56.91
75164;HTU21D;63746;45.402;37.922;2023-06-24T05:03:12;22.96;56.87
75164;HTU21D;63746;45.402;37.922;2023-06-24T05:05:38;23.05;56.85
75164;HTU21D;63746;45.402;37.922;2023-06-24T05:08:04;23.13;56.79
75164;HTU21D;63746;45.402;37.922;2023-06-24T05:10:30;23.22;56.75
75164;HTU21D;63746;45.402;37.922;2023-06-24T05:12:56;23.32;56.70
75164;HTU21D;63746;45.402;37.922;2023-06-24T05:15:22;23.41;56.68
75164;HTU21D;63746;45.402;37.922;2023-06-24T05:17:48;23.52;56.63
75164;HTU21D;63746;45.402;37.922;2023-06-24T05:20:14;23.61;56.58
75164;HTU21D;63746;45.402;37.922;2023-06-24T05:22:40;23.71;56.51
75164;HTU21D;63746;45.402;37.922;2023-06-24T05:25:06;23.80;56.46
75164;HTU21D;63746;45.402;37.922;2023-06-24T05:27:32;23.89;56.42
75164;HTU21D;63746;45.402;37.922;2023-06-24T05:29:58;23.99;56.37
75164;HTU21D;63746;45.402;37.922;2023-06-24T05:32:24;24.11;56.31
75164;HTU21D;63746;45.402;37.922;2023-06-24T05:34:50;24.20;56.23
75164;HTU21D;63746;45.402;37.922;2023-06-24T05:37:16;24.30;56.16
75164;HTU21D;63746;45.402;37.922;2023-06-24T05:39:42;24.41;56.12
75164;HTU21D;63746;45.402;37.922;2023-06-24T05:42:08;24.51;56.06
75164;HTU21D;63746;45.402;37.922;2023-06-24T05:44:34;24.62;55.98
75164;HTU21D;63746;45.402;37.922;2023-06-24T05:47:00;24.71;55.90
75164;HTU21D;63746;45.402;37.922;2023-06-24T05:49:26;24.79;55.81
75164;HTU21D;63746;45.402;37.922;2023-06-24T05:51:51;24.88;55.74
75164;HTU21D;63746;45.402;37.922;2023-06-24T05:54:17;24.95;55.65
75164;HTU21D;63746;45.402;37.922;2023-06-24T05:56:43;25.04;55.60
75164;HTU21D;63746;45.402;37.922;2023-06-24T05:59:09;25.13;55.54
75164;HTU21D;63746;45.402;37.922;2023-06-24T06:01:35;25.20;55.46
75164;HTU21D;63746;45.402;37.922;2023-06-24T06:04:01;25.29;55.39
75164;HTU21D;63746;45.402;37.922;2023-06-24T06:06:27;25.33;55.31
75164;HTU21D;63746;45.402;37.922;2023-06-24T06:08:53;25.42;55.21
75164;HTU21D;63746;45.402;37.922;2023-06-24T06:11:18;25.49;55.16
75164;HTU21D;63746;45.402;37.922;2023-06-24T06:13:44;25.57;55.08
75164;HTU21D;63746;45.402;37.922;2023-06-24T06:16:10;25.64;55.04
75164;HTU21D;63746;45.402;37.922;2023-06-24T06:18:36;25.71;54.99
75164;HTU21D;63746;45.402;37.922;2023-06-24T06:21:02;25.78;54.93
75164;HTU21D;63746;45.402;37.922;2023-06-24T06:23:28;25.86;54.86
75164;HTU21D;63746;45.402;37.922;2023-06-24T06:25:54;25.94;54.80
75164;HTU21D;63746;45.402;37.922;2023-06-24T06:28:20;26.03;54.76
75164;HTU21D;63746;45.402;37.922;2023-06-24T06:30:46;26.13;54.71
75164;HTU21D;63746;45.402;37.922;2023-06-24T06:33:12;26.26;54.66
75164;HTU21D;63746;45.402;37.922;2023-06-24T06:35:38;26.36;54.56
75164;HTU21D;63746;45.402;37.922;2023-06-24T06:38:05;26.45;54.46
75164;HTU21D;63746;45.402;37.922;2023-06-24T06:40:31;26.56;54.42
75164;HTU21D;63746;45.402;37.922;2023-06-24T06:42:57;26.65;54.36
75164;HTU21D;63746;45.402;37.922;2023-06-24T06:45:23;26.75;54.33
75164;HTU21D;63746;45.402;37.922;2023-06-24T06:47:49;26.85;54.24
75164;HTU21D;63746;45.402;37.922;2023-06-24T06:50:16;26.94;54.18
75164;HTU21D;63746;45.402;37.922;2023-06-24T06:52:42;27.05;54.14
75164;HTU21D;63746;45.402;37.922;2023-06-24T06:55:09;27.14;54.08
75164;HTU21D;63746;45.402;37.922;2023-06-24T06:57:35;27.24;54.02
75164;HTU21D;63746;45.402;37.922;2023-06-24T07:00:01;27.32;53.97
75164;HTU21D;63746;45.402;37.922;2023-06-24T07:02:27;27.43;53.93
75164;HTU21D;63746;45.402;37.922;2023-06-24T07:04:53;27.51;53.88
75164;HTU21D;63746;45.402;37.922;2023-06-24T07:07:19;27.57;53.84
75164;HTU21D;63746;45.402;37.922;2023-06-24T07:09:45;27.65;53.78
75164;HTU21D;63746;45.402;37.922;2023-06-24T07:12:12;27.73;53.75
75164;HTU21D;63746;45.402;37.922;2023-06-24T07:14:39;27.80;53.68
75164;HTU21D;63746;45.402;37.922;2023-06-24T07:17:05;27.86;53.69
75164;HTU21D;63746;45.402;37.922;2023-06-24T07:19:31;27.96;53.68
75164;HTU21D;63746;45.402;37.922;2023-06-24T07:21:57;28.03;53.63
75164;HTU21D;63746;45.402;37.922;2023-06-24T07:24:23;28.14;53.59
75164;HTU21D;63746;45.402;37.922;2023-06-24T07:26:48;28.24;53.55
75164;HTU21D;63746;45.402;37.922;2023-06-24T07:29:14;28.35;53.48
75164;HTU21D;63746;45.402;37.922;2023-06-24T07:31:40;28.45;53.39
75164;HTU21D;63746;45.402;37.922;2023-06-24T07:34:06;28.56;53.30
75164;HTU21D;63746;45.402;37.922;2023-06-24T07:36:33;28.61;53.23
75164;HTU21D;63746;45.402;37.922;2023-06-24T07:38:59;28.71;53.14
75164;HTU21D;63746;45.402;37.922;2023-06-24T07:41:25;28.78;53.04
75164;HTU21D;63746;45.402;37.922;2023-06-24T07:43:51;28.82;53.02
75164;HTU21D;63746;45.402;37.922;2023-06-24T07:46:17;28.87;52.97
75164;HTU21D;63746;45.402;37.922;2023-06-24T07:48:43;28.94;52.94
75164;HTU21D;63746;45.402;37.922;2023-06-24T07:51:09;29.02;52.88
75164;HTU21D;63746;45.402;37.922;2023-06-24T07:53:35;29.04;52.78
75164;HTU21D;63746;45.402;37.922;2023-06-24T07:56:01;29.08;52.77
75164;HTU21D;63746;45.402;37.922;2023-06-24T07:58:27;29.13;52.77
75164;HTU21D;63746;45.402;37.922;2023-06-24T08:00:53;29.19;52.70
75164;HTU21D;63746;45.402;37.922;2023-06-24T08:03:19;29.23;52.64
75164;HTU21D;63746;45.402;37.922;2023-06-24T08:05:45;29.28;52.60
75164;HTU21D;63746;45.402;37.922;2023-06-24T08:08:11;29.34;52.59
75164;HTU21D;63746;45.402;37.922;2023-06-24T08:10:36;29.39;52.56
75164;HTU21D;63746;45.402;37.922;2023-06-24T08:13:02;29.48;52.51
75164;HTU21D;63746;45.402;37.922;2023-06-24T08:15:28;29.53;52.40
75164;HTU21D;63746;45.402;37.922;2023-06-24T08:17:55;29.58;52.33
75164;HTU21D;63746;45.402;37.922;2023-06-24T08:20:21;29.62;52.27
75164;HTU21D;63746;45.402;37.922;2023-06-24T08:22:48;29.66;52.17
75164;HTU21D;63746;45.402;37.922;2023-06-24T08:25:14;29.66;52.18
75164;HTU21D;63746;45.402;37.922;2023-06-24T08:27:40;29.71;52.16
75164;HTU21D;63746;45.402;37.922;2023-06-24T08:30:06;29.73;52.11
75164;HTU21D;63746;45.402;37.922;2023-06-24T08:32:33;29.79;52.11
75164;HTU21D;63746;45.402;37.922;2023-06-24T08:34:59;29.83;52.10
75164;HTU21D;63746;45.402;37.922;2023-06-24T08:37:25;29.93;52.07
75164;HTU21D;63746;45.402;37.922;2023-06-24T08:39:51;30.00;51.96
75164;HTU21D;63746;45.402;37.922;2023-06-24T08:42:17;30.05;51.94
75164;HTU21D;63746;45.402;37.922;2023-06-24T08:44:43;30.15;51.87
75164;HTU21D;63746;45.402;37.922;2023-06-24T08:47:09;30.21;51.78
75164;HTU21D;63746;45.402;37.922;2023-06-24T08:49:51;30.28;51.55
75164;HTU21D;63746;45.402;37.922;2023-06-24T08:52:21;30.38;51.68
75164;HTU21D;63746;45.402;37.922;2023-06-24T08:54:50;30.47;51.58
75164;HTU21D;63746;45.402;37.922;2023-06-24T08:57:16;30.52;51.52
75164;HTU21D;63746;45.402;37.922;2023-06-24T08:59:44;30.56;51.46
75164;HTU21D;63746;45.402;37.922;2023-06-24T09:02:10;30.62;51.43
75164;HTU21D;63746;45.402;37.922;2023-06-24T09:04:37;30.67;51.40
75164;HTU21D;63746;45.402;37.922;2023-06-24T09:07:03;30.72;51.30
75164;HTU21D;63746;45.402;37.922;2023-06-24T09:09:29;30.77;51.31
75164;HTU21D;63746;45.402;37.922;2023-06-24T09:11:57;30.83;51.24
75164;HTU21D;63746;45.402;37.922;2023-06-24T09:14:29;30.90;51.06
75164;HTU21D;63746;45.402;37.922;2023-06-24T09:16:56;30.95;51.11
75164;HTU21D;63746;45.402;37.922;2023-06-24T09:19:24;31.00;51.13
75164;HTU21D;63746;45.402;37.922;2023-06-24T09:21:51;31.08;51.10
75164;HTU21D;63746;45.402;37.922;2023-06-24T09:24:20;31.13;51.01
75164;HTU21D;63746;45.402;37.922;2023-06-24T09:26:46;31.18;50.91
75164;HTU21D;63746;45.402;37.922;2023-06-24T09:29:15;31.20;50.73
75164;HTU21D;63746;45.402;37.922;2023-06-24T09:31:50;31.21;50.46
75164;HTU21D;63746;45.402;37.922;2023-06-24T09:34:19;31.21;50.81
75164;HTU21D;63746;45.402;37.922;2023-06-24T09:36:50;31.21;50.81
75164;HTU21D;63746;45.402;37.922;2023-06-24T09:39:16;31.26;50.85
75164;HTU21D;63746;45.402;37.922;2023-06-24T09:41:43;31.31;50.82
75164;HTU21D;63746;45.402;37.922;2023-06-24T09:44:11;31.34;50.60
75164;HTU21D;63746;45.402;37.922;2023-06-24T09:46:37;31.34;50.69
75164;HTU21D;63746;45.402;37.922;2023-06-24T09:49:06;31.35;50.58
75164;HTU21D;63746;45.402;37.922;2023-06-24T09:51:37;31.38;50.51
75164;HTU21D;63746;45.402;37.922;2023-06-24T09:54:07;31.40;50.53
75164;HTU21D;63746;45.402;37.922;2023-06-24T09:56:35;31.44;50.51
75164;HTU21D;63746;45.402;37.922;2023-06-24T09:59:05;31.49;50.55
75164;HTU21D;63746;45.402;37.922;2023-06-24T10:01:52;31.53;49.89
75164;HTU21D;63746;45.402;37.922;2023-06-24T10:04:20;31.58;50.47
75164;HTU21D;63746;45.402;37.922;2023-06-24T10:06:49;31.63;50.43
75164;HTU21D;63746;45.402;37.922;2023-06-24T10:09:16;31.67;50.38
75164;HTU21D;63746;45.402;37.922;2023-06-24T10:11:44;31.70;50.27
75164;HTU21D;63746;45.402;37.922;2023-06-24T10:14:10;31.70;50.23
75164;HTU21D;63746;45.402;37.922;2023-06-24T10:16:38;31.69;50.20
75164;HTU21D;63746;45.402;37.922;2023-06-24T10:19:05;31.70;50.18
75164;HTU21D;63746;45.402;37.922;2023-06-24T10:22:01;31.72;49.65
75164;HTU21D;63746;45.402;37.922;2023-06-24T10:24:32;31.72;49.95
75164;HTU21D;63746;45.402;37.922;2023-06-24T10:27:15;31.69;49.44
75164;HTU21D;63746;45.402;37.922;2023-06-24T10:29:51;31.67;49.97
75164;HTU21D;63746;45.402;37.922;2023-06-24T10:32:18;31.68;50.18
75164;HTU21D;63746;45.402;37.922;2023-06-24T10:34:46;31.73;50.14
75164;HTU21D;63746;45.402;37.922;2023-06-24T10:37:23;31.78;49.63
75164;HTU21D;63746;45.402;37.922;2023-06-24T10:40:01;31.78;49.98
75164;HTU21D;63746;45.402;37.922;2023-06-24T10:42:35;31.79;49.97
75164;HTU21D;63746;45.402;37.922;2023-06-24T10:45:15;31.78;49.99
75164;HTU21D;63746;45.402;37.922;2023-06-24T10:47:41;31.79;49.98
75164;HTU21D;63746;45.402;37.922;2023-06-24T10:50:09;31.83;49.92
75164;HTU21D;63746;45.402;37.922;2023-06-24T10:52:40;31.83;49.72
75164;HTU21D;63746;45.402;37.922;2023-06-24T10:55:07;31.88;49.88
75164;HTU21D;63746;45.402;37.922;2023-06-24T10:57:33;31.93;49.83
75164;HTU21D;63746;45.402;37.922;2023-06-24T11:00:01;31.94;49.76
75164;HTU21D;63746;45.402;37.922;2023-06-24T11:02:27;31.97;49.74
75164;HTU21D;63746;45.402;37.922;2023-06-24T11:04:54;31.98;49.66
75164;HTU21D;63746;45.402;37.922;2023-06-24T11:07:50;31.98;48.57
75164;HTU21D;63746;45.402;37.922;2023-06-24T11:10:16;31.97;49.64
75164;HTU21D;63746;45.402;37.922;2023-06-24T11:12:43;31.98;49.57
75164;HTU21D;63746;45.402;37.922;2023-06-24T11:15:11;32.00;49.53
75164;HTU21D;63746;45.402;37.922;2023-06-24T11:17:38;31.98;49.51
75164;HTU21D;63746;45.402;37.922;2023-06-24T11:20:08;31.94;49.32
75164;HTU21D;63746;45.402;37.922;2023-06-24T11:22:35;31.93;49.55
75164;HTU21D;63746;45.402;37.922;2023-06-24T11:25:00;31.90;49.56
75164;HTU21D;63746;45.402;37.922;2023-06-24T11:27:28;31.90;49.55
75164;HTU21D;63746;45.402;37.922;2023-06-24T11:29:56;31.90;49.50
75164;HTU21D;63746;45.402;37.922;2023-06-24T11:32:24;31.90;49.44
75164;HTU21D;63746;45.402;37.922;2023-06-24T11:34:50;31.87;49.44
75164;HTU21D;63746;45.402;37.922;2023-06-24T11:37:19;31.88;49.29
75164;HTU21D;63746;45.402;37.922;2023-06-24T11:40:01;31.86;48.65
75164;HTU21D;63746;45.402;37.922;2023-06-24T11:42:30;31.84;49.34
75164;HTU21D;63746;45.402;37.922;2023-06-24T11:45:01;31.81;49.17
75164;HTU21D;63746;45.402;37.922;2023-06-24T11:47:31;31.81;49.21
75164;HTU21D;63746;45.402;37.922;2023-06-24T11:49:58;31.82;49.37
75164;HTU21D;63746;45.402;37.922;2023-06-24T11:52:45;31.84;48.53
75164;HTU21D;63746;45.402;37.922;2023-06-24T11:55:17;31.83;49.12
75164;HTU21D;63746;45.402;37.922;2023-06-24T11:57:54;31.81;49.07
75164;HTU21D;63746;45.402;37.922;2023-06-24T12:00:22;31.82;49.23
75164;HTU21D;63746;45.402;37.922;2023-06-24T12:02:50;31.84;49.21
75164;HTU21D;63746;45.402;37.922;2023-06-24T12:05:22;31.84;48.97
75164;HTU21D;63746;45.402;37.922;2023-06-24T12:07:58;31.86;48.97
75164;HTU21D;63746;45.402;37.922;2023-06-24T12:10:25;31.86;49.12
75164;HTU21D;63746;45.402;37.922;2023-06-24T12:12:51;31.85;49.11
75164;HTU21D;63746;45.402;37.922;2023-06-24T12:15:18;31.84;49.09
75164;HTU21D;63746;45.402;37.922;2023-06-24T12:17:43;31.84;49.04
75164;HTU21D;63746;45.402;37.922;2023-06-24T12:20:10;31.81;49.03
75164;HTU21D;63746;45.402;37.922;2023-06-24T12:22:36;31.80;49.05
75164;HTU21D;63746;45.402;37.922;2023-06-24T12:25:03;31.80;49.02
75164;HTU21D;63746;45.402;37.922;2023-06-24T12:27:29;31.80;49.01
75164;HTU21D;63746;45.402;37.922;2023-06-24T12:29:55;31.79;48.99
75164;HTU21D;63746;45.402;37.922;2023-06-24T12:32:21;31.78;48.99
75164;HTU21D;63746;45.402;37.922;2023-06-24T12:34:47;31.79;48.95
75164;HTU21D;63746;45.402;37.922;2023-06-24T12:37:13;31.75;48.94
75164;HTU21D;63746;45.402;37.922;2023-06-24T12:39:39;31.72;48.93
75164;HTU21D;63746;45.402;37.922;2023-06-24T12:42:05;31.70;48.92
75164;HTU21D;63746;45.402;37.922;2023-06-24T12:44:31;31.69;48.92
75164;HTU21D;63746;45.402;37.922;2023-06-24T12:46:57;31.66;48.93
75164;HTU21D;63746;45.402;37.922;2023-06-24T12:49:23;31.63;48.93
75164;HTU21D;63746;45.402;37.922;2023-06-24T12:51:49;31.59;48.95
75164;HTU21D;63746;45.402;37.922;2023-06-24T12:54:15;31.57;48.95
75164;HTU21D;63746;45.402;37.922;2023-06-24T12:56:41;31.55;48.92
75164;HTU21D;63746;45.402;37.922;2023-06-24T12:59:07;31.52;48.91
75164;HTU21D;63746;45.402;37.922;2023-06-24T13:01:33;31.49;48.93
75164;HTU21D;63746;45.402;37.922;2023-06-24T13:03:59;31.46;48.92
75164;HTU21D;63746;45.402;37.922;2023-06-24T13:06:25;31.44;48.92
75164;HTU21D;63746;45.402;37.922;2023-06-24T13:08:51;31.40;48.90
75164;HTU21D;63746;45.402;37.922;2023-06-24T13:11:17;31.35;48.91
75164;HTU21D;63746;45.402;37.922;2023-06-24T13:13:43;31.29;48.92
75164;HTU21D;63746;45.402;37.922;2023-06-24T13:16:09;31.24;48.97
75164;HTU21D;63746;45.402;37.922;2023-06-24T13:18:35;31.19;48.99
75164;HTU21D;63746;45.402;37.922;2023-06-24T13:21:01;31.15;49.01
75164;HTU21D;63746;45.402;37.922;2023-06-24T13:23:27;31.12;49.05
75164;HTU21D;63746;45.402;37.922;2023-06-24T13:25:53;31.09;49.08
75164;HTU21D;63746;45.402;37.922;2023-06-24T13:28:19;31.08;49.10
75164;HTU21D;63746;45.402;37.922;2023-06-24T13:30:45;31.07;49.12
75164;HTU21D;63746;45.402;37.922;2023-06-24T13:33:11;31.07;49.10
75164;HTU21D;63746;45.402;37.922;2023-06-24T13:35:37;31.06;49.09
75164;HTU21D;63746;45.402;37.922;2023-06-24T13:38:03;31.04;49.10
75164;HTU21D;63746;45.402;37.922;2023-06-24T13:40:29;30.99;49.12
75164;HTU21D;63746;45.402;37.922;2023-06-24T13:42:56;30.97;49.13
75164;HTU21D;63746;45.402;37.922;2023-06-24T13:45:22;30.93;49.13
75164;HTU21D;63746;45.402;37.922;2023-06-24T13:47:48;30.90;49.15
75164;HTU21D;63746;45.402;37.922;2023-06-24T13:50:14;30.85;49.15
75164;HTU21D;63746;45.402;37.922;2023-06-24T13:52:40;30.81;49.15
75164;HTU21D;63746;45.402;37.922;2023-06-24T13:55:07;30.77;49.17
75164;HTU21D;63746;45.402;37.922;2023-06-24T13:57:33;30.76;49.20
75164;HTU21D;63746;45.402;37.922;2023-06-24T13:59:59;30.72;49.19
75164;HTU21D;63746;45.402;37.922;2023-06-24T14:02:25;30.70;49.20
75164;HTU21D;63746;45.402;37.922;2023-06-24T14:04:51;30.67;49.19
75164;HTU21D;63746;45.402;37.922;2023-06-24T14:07:16;30.61;49.23
75164;HTU21D;63746;45.402;37.922;2023-06-24T14:09:42;30.59;49.22
75164;HTU21D;63746;45.402;37.922;2023-06-24T14:12:09;30.55;49.22
75164;HTU21D;63746;45.402;37.922;2023-06-24T14:14:36;30.51;49.18
75164;HTU21D;63746;45.402;37.922;2023-06-24T14:17:06;30.46;49.19
75164;HTU21D;63746;45.402;37.922;2023-06-24T14:19:35;30.40;49.23
75164;HTU21D;63746;45.402;37.922;2023-06-24T14:22:01;30.36;49.25
75164;HTU21D;63746;45.402;37.922;2023-06-24T14:24:27;30.33;49.29
75164;HTU21D;63746;45.402;37.922;2023-06-24T14:26:53;30.28;49.31
75164;HTU21D;63746;45.402;37.922;2023-06-24T14:29:19;30.26;49.31
75164;HTU21D;63746;45.402;37.922;2023-06-24T14:31:45;30.23;49.31
75164;HTU21D;63746;45.402;37.922;2023-06-24T14:34:11;30.18;49.31
75164;HTU21D;63746;45.402;37.922;2023-06-24T14:36:37;30.15;49.32
75164;HTU21D;63746;45.402;37.922;2023-06-24T14:39:03;30.11;49.34
75164;HTU21D;63746;45.402;37.922;2023-06-24T14:41:29;30.06;49.36
75164;HTU21D;63746;45.402;37.922;2023-06-24T14:43:55;30.03;49.35
75164;HTU21D;63746;45.402;37.922;2023-06-24T14:46:21;30.00;49.40
75164;HTU21D;63746;45.402;37.922;2023-06-24T14:48:47;29.96;49.40
75164;HTU21D;63746;45.402;37.922;2023-06-24T14:51:13;29.93;49.41
75164;HTU21D;63746;45.402;37.922;2023-06-24T14:53:39;29.87;49.44
75164;HTU21D;63746;45.402;37.922;2023-06-24T14:56:06;29.85;49.44
75164;HTU21D;63746;45.402;37.922;2023-06-24T14:58:31;29.82;49.46
75164;HTU21D;63746;45.402;37.922;2023-06-24T15:00:57;29.79;49.46
75164;HTU21D;63746;45.402;37.922;2023-06-24T15:03:23;29.75;49.47
75164;HTU21D;63746;45.402;37.922;2023-06-24T15:05:49;29.74;49.48
75164;HTU21D;63746;45.402;37.922;2023-06-24T15:08:15;29.71;49.50
75164;HTU21D;63746;45.402;37.922;2023-06-24T15:10:41;29.70;49.50
75164;HTU21D;63746;45.402;37.922;2023-06-24T15:13:07;29.67;49.48
75164;HTU21D;63746;45.402;37.922;2023-06-24T15:15:33;29.65;49.48
75164;HTU21D;63746;45.402;37.922;2023-06-24T15:17:59;29.60;49.47
75164;HTU21D;63746;45.402;37.922;2023-06-24T15:20:26;29.56;49.50